createdAt,value
2018-01-18T00:01:27.180Z,9.90
2018-01-18T00:03:54.702Z,10.10
2018-01-18T00:06:22.206Z,11.53
2018-01-18T00:08:49.714Z,11.30
2018-01-18T00:11:17.214Z,12.90
2018-01-18T00:13:44.728Z,12.73
2018-01-18T00:16:12.220Z,11.80
2018-01-18T00:18:39.734Z,11.87
2018-01-18T00:21:07.257Z,13.47
2018-01-18T00:23:34.779Z,12.13
2018-01-18T00:26:02.289Z,12.60
2018-01-18T00:28:29.794Z,12.80
2018-01-18T00:30:57.306Z,13.50
2018-01-18T00:33:25.680Z,12.60
2018-01-18T00:35:53.184Z,11.43
2018-01-18T00:38:20.697Z,11.63
2018-01-18T00:40:48.210Z,11.07
2018-01-18T00:43:15.702Z,11.07
2018-01-18T00:45:43.184Z,10.53
2018-01-18T00:48:10.675Z,10.50
2018-01-18T00:50:38.183Z,11.27
2018-01-18T00:53:05.764Z,11.40
2018-01-18T00:55:33.262Z,10.40
2018-01-18T00:58:00.740Z,10.47
2018-01-18T01:00:28.239Z,9.20
2018-01-18T01:02:55.778Z,10.90
2018-01-18T01:05:26.200Z,10.33
2018-01-18T01:07:53.718Z,10.60
2018-01-18T01:10:21.214Z,10.17
2018-01-18T01:12:48.736Z,8.53
2018-01-18T01:15:16.224Z,10.30
2018-01-18T01:17:44.519Z,9.17
2018-01-18T01:20:12.258Z,10.23
2018-01-18T01:22:39.752Z,9.00
2018-01-18T01:25:07.256Z,8.97
2018-01-18T01:27:34.763Z,8.43
2018-01-18T01:30:02.279Z,9.17
2018-01-18T01:32:29.760Z,8.80
2018-01-18T01:34:57.258Z,8.60
2018-01-18T01:37:24.755Z,9.57
2018-01-18T01:39:52.254Z,8.77
2018-01-18T01:42:19.767Z,9.37
2018-01-18T01:44:47.266Z,8.97
2018-01-18T01:47:14.794Z,8.83
2018-01-18T01:49:42.281Z,8.77
2018-01-18T01:52:09.770Z,9.57
2018-01-18T01:54:37.271Z,8.80
2018-01-18T01:57:04.755Z,7.87
2018-01-18T01:59:32.282Z,9.07
2018-01-18T02:01:59.815Z,8.93
2018-01-18T02:04:27.326Z,8.57
2018-01-18T02:06:54.842Z,9.93
2018-01-18T02:09:22.328Z,8.47
2018-01-18T02:11:49.889Z,9.17
2018-01-18T02:14:17.393Z,8.23
2018-01-18T02:16:44.927Z,8.73
2018-01-18T02:19:12.444Z,7.67
2018-01-18T02:21:39.979Z,7.27
2018-01-18T02:24:07.464Z,7.77
2018-01-18T02:26:34.948Z,7.60
2018-01-18T02:29:02.438Z,7.60
2018-01-18T02:31:29.946Z,7.30
2018-01-18T02:33:57.439Z,8.50
2018-01-18T02:36:24.974Z,8.20
2018-01-18T02:38:52.453Z,7.27
2018-01-18T02:41:19.976Z,6.93
2018-01-18T02:43:48.350Z,6.67
2018-01-18T02:46:15.852Z,7.50
2018-01-18T02:48:43.350Z,8.17
2018-01-18T02:51:10.845Z,7.53
2018-01-18T02:53:38.344Z,7.23
2018-01-18T02:56:06.189Z,6.50
2018-01-18T02:58:33.681Z,7.30
2018-01-18T03:01:01.188Z,7.17
2018-01-18T03:03:28.678Z,8.30
2018-01-18T03:05:56.170Z,8.80
2018-01-18T03:08:23.656Z,8.63
2018-01-18T03:10:51.137Z,9.90
2018-01-18T03:13:18.710Z,8.17
2018-01-18T03:15:46.188Z,7.20
2018-01-18T03:18:13.694Z,7.03
2018-01-18T03:20:41.228Z,7.30
2018-01-18T03:23:08.742Z,6.23
2018-01-18T03:25:36.260Z,6.83
2018-01-18T03:28:03.767Z,6.33
2018-01-18T03:30:31.271Z,6.13
2018-01-18T03:32:58.848Z,7.37
2018-01-18T03:35:26.358Z,7.10
2018-01-18T03:37:53.862Z,6.67
2018-01-18T03:40:21.370Z,6.07
2018-01-18T03:42:48.894Z,5.50
2018-01-18T03:45:16.385Z,5.67
2018-01-18T03:47:43.870Z,5.97
2018-01-18T03:50:11.349Z,7.20
2018-01-18T03:52:38.830Z,5.83
2018-01-18T03:55:06.308Z,6.67
2018-01-18T03:57:33.800Z,7.13
2018-01-18T04:00:01.287Z,6.83
2018-01-18T04:02:28.779Z,7.03
2018-01-18T04:04:56.267Z,6.50
2018-01-18T04:07:26.942Z,7.00
2018-01-18T04:09:54.680Z,6.33
2018-01-18T04:12:22.180Z,7.87
2018-01-18T04:14:49.664Z,8.50
2018-01-18T04:17:17.158Z,6.13
2018-01-18T04:19:44.656Z,6.23
2018-01-18T04:22:12.160Z,6.50
2018-01-18T04:24:39.664Z,6.17
2018-01-18T04:27:07.153Z,6.77
2018-01-18T04:29:34.636Z,6.20
2018-01-18T04:32:02.176Z,5.90
2018-01-18T04:34:29.652Z,6.20
2018-01-18T04:36:57.166Z,6.20
2018-01-18T04:39:24.706Z,6.27
2018-01-18T04:41:52.188Z,6.30
2018-01-18T04:44:19.699Z,6.27
2018-01-18T04:46:47.192Z,6.60
2018-01-18T04:49:14.693Z,6.17
2018-01-18T04:51:42.201Z,5.33
2018-01-18T04:54:09.697Z,6.30
2018-01-18T04:56:37.193Z,7.03
2018-01-18T04:59:04.711Z,6.63
2018-01-18T05:01:32.194Z,5.30
2018-01-18T05:03:59.704Z,6.57
2018-01-18T05:06:27.196Z,6.00
2018-01-18T05:08:54.696Z,5.30
2018-01-18T05:11:22.214Z,5.70
2018-01-18T05:13:49.715Z,5.60
2018-01-18T05:16:17.214Z,6.03
2018-01-18T05:18:44.732Z,5.80
2018-01-18T05:21:12.230Z,5.73
2018-01-18T05:23:39.755Z,4.50
2018-01-18T05:26:07.246Z,5.60
2018-01-18T05:28:34.770Z,5.47
2018-01-18T05:31:02.266Z,5.53
2018-01-18T05:33:29.760Z,5.70
2018-01-18T05:35:57.240Z,5.93
2018-01-18T05:38:24.722Z,6.07
2018-01-18T05:40:52.213Z,6.67
2018-01-18T05:43:19.727Z,5.77
2018-01-18T05:45:47.232Z,4.67
2018-01-18T05:48:14.734Z,5.20
2018-01-18T05:50:42.293Z,5.30
2018-01-18T05:53:09.808Z,5.03
2018-01-18T05:55:37.370Z,5.23
2018-01-18T05:58:04.879Z,5.07
2018-01-18T06:00:32.391Z,5.10
2018-01-18T06:02:59.894Z,5.47
2018-01-18T06:05:27.414Z,5.10
2018-01-18T06:07:54.894Z,4.47
2018-01-18T06:10:22.390Z,4.77
2018-01-18T06:12:49.880Z,4.23
2018-01-18T06:15:17.376Z,4.70
2018-01-18T06:17:44.883Z,4.23
2018-01-18T06:20:12.356Z,4.87
2018-01-18T06:22:39.861Z,4.00
2018-01-18T06:25:07.348Z,5.07
2018-01-18T06:27:34.842Z,4.60
2018-01-18T06:30:02.328Z,4.23
2018-01-18T06:32:29.836Z,3.90
2018-01-18T06:34:57.399Z,4.60
2018-01-18T06:37:24.918Z,3.83
2018-01-18T06:39:52.422Z,3.87
2018-01-18T06:42:19.912Z,3.63
2018-01-18T06:44:48.122Z,3.47
2018-01-18T06:47:15.668Z,3.23
2018-01-18T06:49:43.196Z,3.53
2018-01-18T06:52:10.701Z,3.57
2018-01-18T06:54:38.204Z,3.20
2018-01-18T06:57:05.702Z,3.13
2018-01-18T06:59:33.242Z,3.50
2018-01-18T07:02:00.769Z,2.83
2018-01-18T07:04:28.261Z,3.70
2018-01-18T07:06:55.783Z,3.40
2018-01-18T07:09:23.265Z,2.97
2018-01-18T07:11:50.784Z,3.43
2018-01-18T07:14:18.308Z,3.70
2018-01-18T07:16:45.856Z,2.93
2018-01-18T07:19:13.363Z,2.90
2018-01-18T07:21:40.880Z,2.50
2018-01-18T07:24:08.379Z,2.50
2018-01-18T07:26:35.868Z,2.40
2018-01-18T07:29:03.388Z,2.80
2018-01-18T07:31:30.900Z,2.80
2018-01-18T07:33:58.430Z,3.10
2018-01-18T07:36:25.935Z,3.10
2018-01-18T07:38:53.458Z,3.33
2018-01-18T07:41:20.978Z,2.80
2018-01-18T07:43:48.499Z,3.17
2018-01-18T07:46:16.000Z,3.50
2018-01-18T07:48:43.500Z,3.20
2018-01-18T07:51:11.005Z,3.30
2018-01-18T07:53:39.224Z,2.77
2018-01-18T07:56:06.727Z,3.10
2018-01-18T07:58:34.225Z,3.00
2018-01-18T08:01:01.737Z,2.60
2018-01-18T08:03:34.750Z,2.63
2018-01-18T08:06:02.250Z,2.70
2018-01-18T08:08:29.731Z,2.57
2018-01-18T08:10:57.282Z,2.47
2018-01-18T08:13:24.828Z,2.30
2018-01-18T08:15:52.312Z,2.20
2018-01-18T08:18:19.820Z,2.33
2018-01-18T08:20:47.304Z,2.30
2018-01-18T08:23:14.791Z,2.13
2018-01-18T08:25:42.295Z,2.20
2018-01-18T08:28:09.811Z,2.07
2018-01-18T08:30:37.320Z,2.30
2018-01-18T08:33:04.841Z,2.37
2018-01-18T08:35:32.342Z,2.00
2018-01-18T08:37:59.847Z,1.70
2018-01-18T08:40:27.349Z,1.77
2018-01-18T08:42:54.862Z,1.70
2018-01-18T08:45:22.349Z,1.70
2018-01-18T08:47:49.854Z,1.63
2018-01-18T08:50:17.348Z,1.50
2018-01-18T08:52:44.875Z,1.80
2018-01-18T08:55:12.346Z,1.67
2018-01-18T08:57:39.829Z,2.03
2018-01-18T09:00:07.327Z,1.80
2018-01-18T09:02:34.872Z,1.50
2018-01-18T09:05:03.169Z,1.70
2018-01-18T09:07:30.641Z,1.80
2018-01-18T09:09:58.131Z,1.33
2018-01-18T09:12:27.130Z,1.47
2018-01-18T09:14:54.656Z,1.50
2018-01-18T09:17:22.143Z,1.60
2018-01-18T09:19:49.657Z,1.50
2018-01-18T09:22:17.157Z,1.60
2018-01-18T09:24:44.810Z,1.40
2018-01-18T09:27:12.302Z,1.53
2018-01-18T09:29:39.803Z,1.50
2018-01-18T09:32:07.315Z,1.53
2018-01-18T09:34:34.831Z,1.53
2018-01-18T09:37:02.316Z,1.50
2018-01-18T09:39:29.796Z,1.50
2018-01-18T09:41:57.293Z,1.40
2018-01-18T09:44:24.798Z,1.40
2018-01-18T09:46:52.308Z,1.50
2018-01-18T09:49:20.308Z,1.50
2018-01-18T09:51:48.548Z,1.50
2018-01-18T09:54:16.041Z,1.40
2018-01-18T09:56:43.555Z,1.60
2018-01-18T09:59:11.058Z,1.47
2018-01-18T10:01:38.557Z,1.57
2018-01-18T10:04:06.048Z,1.40
2018-01-18T10:06:33.522Z,1.50
2018-01-18T10:09:01.020Z,1.70
2018-01-18T10:11:29.370Z,1.97
2018-01-18T10:13:56.887Z,1.60
2018-01-18T10:16:24.378Z,1.70
2018-01-18T10:18:52.632Z,1.60
2018-01-18T10:21:20.123Z,1.50
2018-01-18T10:23:48.288Z,1.60
2018-01-18T10:26:16.744Z,1.90
2018-01-18T10:28:44.259Z,1.70
2018-01-18T10:31:12.077Z,2.13
2018-01-18T10:33:39.557Z,1.93
2018-01-18T10:36:07.045Z,2.70
2018-01-18T10:38:34.551Z,2.60
2018-01-18T10:41:02.033Z,2.77
2018-01-18T10:43:29.516Z,3.40
2018-01-18T10:45:57.341Z,4.33
2018-01-18T10:48:24.829Z,4.07
2018-01-18T10:50:53.036Z,3.83
2018-01-18T10:53:20.570Z,3.40
2018-01-18T10:55:49.170Z,2.23
2018-01-18T10:58:16.665Z,1.93
2018-01-18T11:00:44.206Z,1.70
2018-01-18T11:03:11.728Z,1.70
2018-01-18T11:05:39.212Z,1.80
2018-01-18T11:08:06.763Z,1.80
2018-01-18T11:10:34.273Z,1.87
2018-01-18T11:13:02.529Z,1.70
2018-01-18T11:15:30.032Z,2.10
2018-01-18T11:17:57.523Z,1.97
2018-01-18T11:20:25.048Z,2.10
2018-01-18T11:22:52.532Z,2.13
2018-01-18T11:25:20.045Z,2.33
2018-01-18T11:27:47.532Z,2.23
2018-01-18T11:30:15.020Z,2.30
2018-01-18T11:32:42.518Z,2.10
2018-01-18T11:35:09.983Z,2.03
2018-01-18T11:37:37.468Z,2.10
2018-01-18T11:40:05.403Z,2.73
2018-01-18T11:42:37.939Z,2.90
2018-01-18T11:45:05.441Z,3.27
2018-01-18T11:47:32.936Z,2.63
2018-01-18T11:50:00.428Z,2.93
2018-01-18T11:52:27.917Z,3.13
2018-01-18T11:54:55.406Z,2.30
2018-01-18T11:57:22.915Z,2.30
2018-01-18T11:59:50.498Z,2.23
2018-01-18T12:02:17.996Z,2.50
2018-01-18T12:04:46.346Z,2.53
2018-01-18T12:07:13.827Z,2.83
2018-01-18T12:09:41.304Z,2.73
2018-01-18T12:12:08.950Z,2.80
2018-01-18T12:14:36.450Z,2.80
2018-01-18T12:17:03.940Z,2.37
2018-01-18T12:19:31.428Z,2.07
2018-01-18T12:21:58.924Z,2.33
2018-01-18T12:24:26.420Z,2.20
2018-01-18T12:26:54.041Z,2.57
2018-01-18T12:29:21.564Z,2.07
2018-01-18T12:31:49.049Z,2.20
2018-01-18T12:34:16.622Z,1.77
2018-01-18T12:36:45.311Z,1.80
2018-01-18T12:39:12.875Z,2.10
2018-01-18T12:41:40.439Z,2.00
2018-01-18T12:44:07.944Z,1.67
2018-01-18T12:46:35.435Z,2.00
2018-01-18T12:49:02.961Z,1.80
2018-01-18T12:51:30.516Z,1.93
2018-01-18T12:53:58.218Z,1.70
2018-01-18T12:56:25.776Z,1.70
2018-01-18T12:58:53.368Z,1.50
2018-01-18T13:01:21.528Z,1.77
2018-01-18T13:03:49.053Z,2.07
2018-01-18T13:06:16.547Z,1.80
2018-01-18T13:08:44.716Z,1.90
2018-01-18T13:11:12.248Z,1.70
2018-01-18T13:13:40.016Z,1.70
2018-01-18T13:16:07.540Z,1.70
2018-01-18T13:18:36.052Z,1.63
2018-01-18T13:21:03.548Z,1.83
2018-01-18T13:23:32.015Z,2.13
2018-01-18T13:25:59.896Z,2.00
2018-01-18T13:28:27.474Z,2.00
2018-01-18T13:30:55.010Z,1.70
2018-01-18T13:33:22.565Z,1.60
2018-01-18T13:35:50.112Z,1.87
2018-01-18T13:38:17.666Z,1.70
2018-01-18T13:40:45.204Z,1.50
2018-01-18T13:43:12.759Z,1.50
2018-01-18T13:45:40.261Z,1.50
2018-01-18T13:48:09.909Z,1.53
2018-01-18T13:50:37.451Z,1.50
2018-01-18T13:53:05.003Z,1.50
2018-01-18T13:55:32.516Z,1.80
2018-01-18T13:58:00.044Z,1.50
2018-01-18T14:00:27.557Z,1.40
2018-01-18T14:02:55.158Z,1.50
2018-01-18T14:05:22.690Z,1.70
2018-01-18T14:07:50.208Z,1.80
2018-01-18T14:10:17.741Z,1.70
2018-01-18T14:12:45.239Z,1.80
2018-01-18T14:15:12.784Z,1.90
2018-01-18T14:17:40.342Z,1.80
2018-01-18T14:20:07.926Z,1.63
2018-01-18T14:22:35.448Z,2.00
2018-01-18T14:25:02.959Z,1.80
2018-01-18T14:27:30.663Z,2.27
2018-01-18T14:29:58.160Z,1.97
2018-01-18T14:32:25.641Z,1.90
2018-01-18T14:34:53.212Z,2.40
2018-01-18T14:37:20.731Z,2.20
2018-01-18T14:39:48.240Z,2.23
2018-01-18T14:42:15.814Z,1.90
2018-01-18T14:44:43.320Z,1.83
2018-01-18T14:47:11.906Z,2.10
2018-01-18T14:49:39.557Z,2.00
2018-01-18T14:52:07.150Z,2.30
2018-01-18T14:54:34.740Z,2.37
2018-01-18T14:57:02.437Z,2.07
2018-01-18T14:59:29.945Z,1.97
2018-01-18T15:01:57.494Z,2.23
2018-01-18T15:04:25.042Z,2.50
2018-01-18T15:06:52.558Z,2.20
2018-01-18T15:09:20.088Z,2.37
2018-01-18T15:11:47.600Z,2.57
2018-01-18T15:14:15.121Z,3.00
2018-01-18T15:16:42.664Z,2.70
2018-01-18T15:19:10.204Z,2.73
2018-01-18T15:21:37.824Z,2.47
2018-01-18T15:24:05.340Z,2.80
2018-01-18T15:26:32.890Z,3.10
2018-01-18T15:29:00.396Z,3.07
2018-01-18T15:31:27.905Z,2.93
2018-01-18T15:33:55.457Z,2.80
2018-01-18T15:36:23.105Z,2.43
2018-01-18T15:38:50.746Z,2.83
2018-01-18T15:41:18.250Z,2.60
2018-01-18T15:43:45.771Z,2.90
2018-01-18T15:46:13.275Z,2.70
2018-01-18T15:48:40.794Z,2.40
2018-01-18T15:51:08.371Z,3.30
2018-01-18T15:53:35.866Z,2.23
2018-01-18T15:56:03.373Z,2.57
2018-01-18T15:58:30.852Z,2.50
2018-01-18T16:00:58.347Z,2.77
2018-01-18T16:03:25.872Z,2.80
2018-01-18T16:05:53.507Z,2.60
2018-01-18T16:08:21.026Z,2.40
2018-01-18T16:10:48.544Z,2.40
2018-01-18T16:13:16.034Z,2.40
2018-01-18T16:15:43.525Z,2.43
2018-01-18T16:18:11.018Z,2.47
2018-01-18T16:20:39.383Z,2.50
2018-01-18T16:23:07.002Z,2.50
2018-01-18T16:25:35.449Z,2.70
2018-01-18T16:28:02.972Z,2.13
2018-01-18T16:30:30.462Z,2.50
2018-01-18T16:32:58.930Z,2.37
2018-01-18T16:35:26.481Z,2.83
2018-01-18T16:37:53.984Z,2.63
2018-01-18T16:40:21.484Z,2.33
2018-01-18T16:42:49.161Z,2.23
2018-01-18T16:45:16.686Z,2.47
2018-01-18T16:47:44.430Z,2.80
2018-01-18T16:50:12.056Z,2.83
2018-01-18T16:52:40.179Z,2.50
2018-01-18T16:55:07.909Z,2.60
2018-01-18T16:57:35.527Z,2.60
2018-01-18T17:00:03.243Z,2.53
2018-01-18T17:02:30.906Z,2.60
2018-01-18T17:04:58.489Z,2.30
2018-01-18T17:07:26.122Z,2.40
2018-01-18T17:09:53.740Z,2.70
2018-01-18T17:12:22.751Z,2.90
2018-01-18T17:14:50.405Z,3.47
2018-01-18T17:17:18.774Z,2.67
2018-01-18T17:19:46.331Z,2.90
2018-01-18T17:22:13.888Z,3.10
2018-01-18T17:24:43.653Z,3.07
2018-01-18T17:27:11.245Z,2.97
2018-01-18T17:29:38.997Z,3.13
2018-01-18T17:32:06.580Z,2.80
2018-01-18T17:34:34.079Z,3.53
2018-01-18T17:37:01.590Z,3.00
2018-01-18T17:39:29.097Z,3.00
2018-01-18T17:41:56.852Z,2.70
2018-01-18T17:44:24.385Z,2.80
2018-01-18T17:46:51.898Z,3.03
2018-01-18T17:49:21.649Z,2.50
2018-01-18T17:51:49.697Z,2.80
2018-01-18T17:54:18.921Z,2.73
2018-01-18T17:56:46.427Z,2.80
2018-01-18T17:59:14.060Z,3.13
2018-01-18T18:01:41.572Z,3.20
2018-01-18T18:04:09.728Z,3.13
2018-01-18T18:06:37.360Z,3.80
2018-01-18T18:09:04.856Z,3.90
2018-01-18T18:11:32.394Z,4.03
2018-01-18T18:13:59.936Z,4.37
2018-01-18T18:16:27.431Z,4.90
2018-01-18T18:18:54.944Z,4.67
2018-01-18T18:21:22.591Z,4.57
2018-01-18T18:23:50.107Z,4.60
2018-01-18T18:26:18.243Z,4.73
2018-01-18T18:28:45.823Z,4.83
2018-01-18T18:31:13.380Z,4.40
2018-01-18T18:33:40.948Z,4.93
2018-01-18T18:36:08.473Z,4.77
2018-01-18T18:38:36.034Z,4.60
2018-01-18T18:41:03.516Z,4.57
2018-01-18T18:43:31.033Z,3.80
2018-01-18T18:45:58.565Z,4.17
2018-01-18T18:48:26.167Z,4.33
2018-01-18T18:50:53.676Z,3.83
2018-01-18T18:53:21.216Z,3.50
2018-01-18T18:55:48.752Z,3.43
2018-01-18T18:58:16.272Z,3.90
2018-01-18T19:00:43.824Z,3.50
2018-01-18T19:03:11.330Z,3.10
2018-01-18T19:05:38.842Z,3.43
2018-01-18T19:08:06.372Z,3.80
2018-01-18T19:10:33.905Z,3.80
2018-01-18T19:13:01.409Z,3.73
2018-01-18T19:15:28.928Z,3.67
2018-01-18T19:17:57.158Z,3.97
2018-01-18T19:20:24.722Z,3.70
2018-01-18T19:22:52.240Z,3.87
2018-01-18T19:25:20.122Z,3.50
2018-01-18T19:27:49.173Z,3.83
2018-01-18T19:30:16.704Z,4.20
2018-01-18T19:32:44.272Z,4.03
2018-01-18T19:35:11.756Z,3.53
2018-01-18T19:37:39.263Z,3.60
2018-01-18T19:40:06.811Z,3.20
2018-01-18T19:42:34.367Z,3.70
2018-01-18T19:45:01.950Z,3.43
2018-01-18T19:47:29.456Z,4.07
2018-01-18T19:49:57.223Z,3.97
2018-01-18T19:52:24.719Z,3.70
2018-01-18T19:54:52.244Z,3.90
2018-01-18T19:57:19.787Z,3.53
2018-01-18T19:59:47.291Z,4.40
2018-01-18T20:02:14.805Z,3.67
2018-01-18T20:04:42.382Z,4.00
2018-01-18T20:07:09.879Z,3.60
2018-01-18T20:09:37.420Z,3.90
2018-01-18T20:12:05.864Z,4.13
2018-01-18T20:14:33.417Z,4.10
2018-01-18T20:17:01.828Z,4.63
2018-01-18T20:19:29.325Z,4.03
2018-01-18T20:21:56.825Z,3.97
2018-01-18T20:24:24.429Z,3.77
2018-01-18T20:26:51.991Z,3.33
2018-01-18T20:29:19.541Z,3.50
2018-01-18T20:31:47.120Z,5.27
2018-01-18T20:34:14.658Z,4.27
2018-01-18T20:36:42.137Z,3.50
2018-01-18T20:39:09.656Z,3.20
2018-01-18T20:41:37.197Z,3.67
2018-01-18T20:44:04.705Z,3.70
2018-01-18T20:46:32.232Z,3.00
2018-01-18T20:48:59.745Z,2.83
2018-01-18T20:51:27.278Z,3.20
2018-01-18T20:53:54.838Z,3.40
2018-01-18T20:56:22.363Z,3.67
2018-01-18T20:58:49.900Z,3.10
2018-01-18T21:01:17.409Z,3.13
2018-01-18T21:03:45.140Z,3.10
2018-01-18T21:06:12.636Z,3.87
2018-01-18T21:08:40.139Z,3.40
2018-01-18T21:11:07.639Z,3.27
2018-01-18T21:13:35.120Z,2.67
2018-01-18T21:16:02.645Z,3.00
2018-01-18T21:18:30.133Z,2.90
2018-01-18T21:20:57.634Z,3.63
2018-01-18T21:23:25.619Z,3.20
2018-01-18T21:25:53.571Z,3.23
2018-01-18T21:28:21.305Z,3.33
2018-01-18T21:30:49.139Z,3.50
2018-01-18T21:33:16.632Z,2.90
2018-01-18T21:35:44.158Z,3.37
2018-01-18T21:38:11.648Z,3.13
2018-01-18T21:40:39.149Z,3.23
2018-01-18T21:43:06.643Z,3.33
2018-01-18T21:45:34.143Z,3.73
2018-01-18T21:48:01.645Z,3.00
2018-01-18T21:50:29.136Z,3.60
2018-01-18T21:52:56.660Z,3.30
2018-01-18T21:55:24.152Z,2.67
2018-01-18T21:57:51.715Z,3.20
2018-01-18T22:00:19.205Z,3.00
2018-01-18T22:02:46.687Z,3.40
2018-01-18T22:05:14.194Z,3.60
2018-01-18T22:07:41.695Z,2.87
2018-01-18T22:10:09.366Z,2.70
2018-01-18T22:12:37.822Z,3.30
2018-01-18T22:15:05.393Z,3.30
2018-01-18T22:17:32.895Z,3.40
2018-01-18T22:20:00.381Z,3.00
2018-01-18T22:22:27.895Z,3.37
2018-01-18T22:24:55.406Z,3.20
2018-01-18T22:27:22.934Z,2.83
2018-01-18T22:29:50.408Z,3.27
2018-01-18T22:32:17.886Z,3.17
2018-01-18T22:34:45.356Z,3.30
2018-01-18T22:37:12.836Z,4.40
2018-01-18T22:39:40.325Z,3.07
2018-01-18T22:42:07.821Z,3.33
2018-01-18T22:44:35.308Z,3.57
2018-01-18T22:47:02.879Z,3.30
2018-01-18T22:49:30.444Z,3.10
2018-01-18T22:51:57.952Z,3.33
2018-01-18T22:54:25.444Z,3.60
2018-01-18T22:56:52.920Z,3.40
2018-01-18T22:59:20.444Z,3.57
2018-01-18T23:01:47.934Z,3.57
2018-01-18T23:04:16.097Z,3.67
2018-01-18T23:06:43.595Z,3.67
2018-01-18T23:09:11.097Z,3.80
2018-01-18T23:11:38.572Z,3.57
2018-01-18T23:14:06.080Z,4.23
2018-01-18T23:16:33.567Z,3.83
2018-01-18T23:19:01.078Z,4.07
2018-01-18T23:21:28.588Z,3.97
2018-01-18T23:23:56.261Z,3.87
2018-01-18T23:26:23.754Z,3.70
2018-01-18T23:28:51.301Z,4.20
2018-01-18T23:31:18.806Z,4.50
2018-01-18T23:33:46.302Z,4.50
2018-01-18T23:36:13.780Z,5.07
2018-01-18T23:38:41.501Z,4.03
2018-01-18T23:41:08.985Z,4.93
2018-01-18T23:43:36.481Z,5.37
2018-01-18T23:46:03.976Z,5.17
2018-01-18T23:48:31.479Z,5.13
2018-01-18T23:50:58.970Z,5.17
2018-01-18T23:53:26.462Z,4.63
2018-01-18T23:55:53.987Z,5.50
2018-01-18T23:58:21.474Z,5.03
